Time;durP1;ratioP1;P1;durP2;ratioP2;P2;SDS_P1;SDS_P2;PMS_P1;PMS_P2;Temp;Humidity;BMP_temperature;BMP_pressure;BME280_temperature;BME280_humidity;BME280_pressure;Samples;Min_cycle;Max_cycle;Signal;HPM_P1;HPM_P2
2022/06/24 00:02:16;;;;;;;4.68;1.67;;;;;;;19.48;53.70;99668.56;4359755;32;34713;-80
2022/06/24 00:05:06;;;;;;;2.97;1.65;;;;;;;19.40;54.41;99664.03;4371988;32;34806;-80
2022/06/24 00:07:53;;;;;;;2.87;1.80;;;;;;;19.39;54.32;99662.44;4357507;32;35314;-80
2022/06/24 00:10:39;;;;;;;3.75;1.87;;;;;;;19.45;53.17;99667.31;4360685;32;35097;-80
2022/06/24 00:13:38;;;;;;;3.95;1.77;;;;;;;18.90;54.81;99669.47;4372702;32;34611;-80
2022/06/24 00:16:24;;;;;;;4.00;1.80;;;;;;;18.38;57.53;99665.97;4350926;32;34147;-80
2022/06/24 00:19:11;;;;;;;4.30;1.77;;;;;;;19.18;55.51;99671.16;4360475;32;35188;-80
2022/06/24 00:22:17;;;;;;;5.07;1.90;;;;;;;18.62;56.58;99675.19;4372922;32;35035;-81
2022/06/24 00:25:12;;;;;;;2.72;1.90;;;;;;;18.72;56.52;99669.06;4372870;32;34603;-80
2022/06/24 00:28:03;;;;;;;3.50;2.03;;;;;;;19.14;55.47;99671.09;4360567;32;33998;-80
2022/06/24 00:30:54;;;;;;;2.72;1.50;;;;;;;19.29;54.89;99678.53;4372638;32;34701;-80
2022/06/24 00:33:46;;;;;;;5.65;1.92;;;;;;;18.60;56.34;99681.09;4372612;32;35961;-80
2022/06/24 00:36:32;;;;;;;4.15;2.08;;;;;;;19.19;54.80;99676.38;4360934;32;33491;-80
2022/06/24 00:39:18;;;;;;;4.55;1.90;;;;;;;19.10;54.80;99670.25;4372822;32;33948;-80
2022/06/24 00:42:05;;;;;;;3.67;1.83;;;;;;;19.12;54.74;99673.44;4372633;32;34615;-80
2022/06/24 00:45:33;;;;;;;4.10;2.03;;;;;;;18.83;55.67;99663.75;4372822;32;35909;-80
2022/06/24 00:48:22;;;;;;;3.78;1.95;;;;;;;19.20;53.86;99666.06;4361807;32;34559;-80
2022/06/24 00:51:08;;;;;;;7.18;2.08;;;;;;;19.22;53.82;99674.84;4372600;32;33909;-80
2022/06/24 00:53:55;;;;;;;5.22;2.20;;;;;;;19.06;54.33;99669.38;4372455;32;34786;-80
2022/06/24 00:56:43;;;;;;;4.45;2.20;;;;;;;18.97;54.75;99669.59;4372569;32;35754;-80
2022/06/24 00:59:35;;;;;;;4.70;2.10;;;;;;;19.12;54.23;99661.53;4365817;32;34690;-80
2022/06/24 01:02:22;;;;;;;5.72;2.50;;;;;;;19.26;53.46;99667.34;4357689;32;33796;-80
2022/06/24 01:05:09;;;;;;;3.97;1.90;;;;;;;18.92;54.13;99649.66;4357589;32;34549;-80
2022/06/24 01:07:57;;;;;;;5.07;2.20;;;;;;;18.95;53.69;99654.47;4369364;32;34574;-80
2022/06/24 01:10:47;;;;;;;7.93;2.45;;;;;;;19.07;52.97;99651.56;4372111;32;35580;-80
2022/06/24 01:13:33;;;;;;;4.45;2.08;;;;;;;18.84;50.99;99651.47;4356415;32;33172;-80
2022/06/24 01:16:24;;;;;;;6.20;2.05;;;;;;;19.32;49.86;99652.81;4371724;32;36242;-80
2022/06/24 01:19:13;;;;;;;4.57;2.22;;;;;;;19.36;49.99;99657.63;4372566;32;34896;-80
2022/06/24 01:21:59;;;;;;;6.82;2.20;;;;;;;19.25;50.28;99647.12;4364926;32;35472;-80
2022/06/24 01:24:45;;;;;;;4.60;2.10;;;;;;;19.07;51.28;99648.78;4372463;32;32894;-80
2022/06/24 01:27:31;;;;;;;3.37;2.03;;;;;;;19.04;52.87;99660.59;4362558;32;34710;-80
2022/06/24 01:30:18;;;;;;;2.37;1.70;;;;;;;19.15;53.59;99650.50;4371591;32;34600;-80
2022/06/24 01:33:04;;;;;;;5.28;1.98;;;;;;;19.26;54.09;99654.25;4372255;32;34830;-80
2022/06/24 01:35:50;;;;;;;3.83;1.90;;;;;;;19.06;54.69;99649.94;4367621;32;34399;-80
2022/06/24 01:38:37;;;;;;;4.68;2.40;;;;;;;18.62;56.42;99642.69;4371827;32;34123;-81
2022/06/24 01:41:29;;;;;;;4.75;2.05;;;;;;;18.83;55.51;99642.34;4372213;32;35066;-80
2022/06/24 01:44:16;;;;;;;6.50;2.30;;;;;;;19.13;54.11;99636.19;4372317;32;34766;-80
2022/06/24 01:47:02;;;;;;;6.40;2.20;;;;;;;19.03;53.68;99637.56;4372305;32;34692;-80
2022/06/24 01:49:48;;;;;;;3.53;2.20;;;;;;;18.86;54.21;99636.06;4372397;32;35209;-80
2022/06/24 01:52:34;;;;;;;3.75;2.03;;;;;;;18.98;53.86;99642.63;4369453;32;35722;-80
2022/06/24 01:55:21;;;;;;;3.40;1.90;;;;;;;18.99;53.30;99638.69;4371899;32;35482;-80
2022/06/24 01:58:07;;;;;;;4.43;2.20;;;;;;;19.10;51.86;99634.94;4372206;32;35059;-80
2022/06/24 02:00:54;;;;;;;7.32;2.08;;;;;;;19.04;52.16;99632.81;4360254;32;34647;-80
2022/06/24 02:03:40;;;;;;;6.30;2.90;;;;;;;19.19;50.94;99631.12;4370449;32;34507;-80
2022/06/24 02:06:27;;;;;;;6.22;2.10;;;;;;;19.00;51.97;99640.28;4355444;32;34921;-80
2022/06/24 02:09:16;;;;;;;3.72;2.05;;;;;;;18.28;54.71;99638.00;4357224;32;33865;-80
2022/06/24 02:15:07;;;;;;;5.43;2.00;;;;;;;18.64;53.36;99640.38;4361240;32;34921;-80
2022/06/24 02:17:54;;;;;;;4.55;2.12;;;;;;;18.25;53.83;99650.63;4359778;32;34631;-80
2022/06/24 02:20:40;;;;;;;6.50;2.37;;;;;;;18.52;52.38;99634.16;4372029;32;34724;-80
2022/06/24 02:23:30;;;;;;;3.78;1.83;;;;;;;18.72;50.73;99635.75;4371847;32;33416;-80
2022/06/24 02:26:17;;;;;;;3.67;1.85;;;;;;;18.87;49.74;99626.59;4370910;32;35133;-80
2022/06/24 02:29:03;;;;;;;4.55;2.08;;;;;;;19.00;49.22;99635.53;4371855;32;35835;-80
2022/06/24 02:31:50;;;;;;;4.05;1.98;;;;;;;18.94;49.97;99630.66;4367197;32;34936;-80
2022/06/24 02:34:36;;;;;;;5.80;2.28;;;;;;;19.14;48.65;99635.00;4371356;32;34930;-80
2022/06/24 02:37:22;;;;;;;4.60;2.28;;;;;;;19.07;49.11;99640.44;4358606;32;35212;-80
2022/06/24 02:43:16;;;;;;;4.40;2.00;;;;;;;18.21;51.90;99646.94;4361790;32;34125;-80
2022/06/24 02:46:10;;;;;;;4.43;2.03;;;;;;;17.86;54.49;99644.19;4371540;32;35511;-80
2022/06/24 02:48:56;;;;;;;4.00;2.12;;;;;;;18.34;53.70;99650.41;4360049;32;35971;-80
2022/06/24 02:51:43;;;;;;;4.85;2.17;;;;;;;18.64;53.07;99642.31;4360299;32;35200;-80
2022/06/24 02:54:29;;;;;;;3.62;1.90;;;;;;;18.87;51.61;99642.44;4371412;32;35104;-80
2022/06/24 02:57:15;;;;;;;4.82;1.83;;;;;;;18.97;49.67;99636.28;4359684;32;33514;-80
2022/06/24 03:00:02;;;;;;;4.80;2.50;;;;;;;19.14;50.25;99642.53;4371470;32;35639;-80
2022/06/24 03:02:48;;;;;;;4.55;2.30;;;;;;;19.12;51.72;99654.00;4371431;32;34298;-80
2022/06/24 03:05:35;;;;;;;4.60;1.95;;;;;;;18.95;52.81;99644.16;4367115;32;33910;-80
2022/06/24 03:08:22;;;;;;;6.22;1.98;;;;;;;18.91;51.70;99650.84;4356363;32;34585;-80
2022/06/24 03:11:08;;;;;;;3.47;1.90;;;;;;;18.99;50.91;99653.38;4370659;32;34658;-80
2022/06/24 03:13:55;;;;;;;4.95;1.77;;;;;;;18.97;50.75;99652.94;4359401;32;35086;-80
2022/06/24 03:16:41;;;;;;;3.85;1.90;;;;;;;18.95;50.27;99654.47;4371319;32;35132;-80
2022/06/24 03:19:27;;;;;;;5.50;2.20;;;;;;;18.99;50.55;99656.16;4366144;32;35176;-80
2022/06/24 03:22:13;;;;;;;3.47;1.70;;;;;;;19.07;50.02;99662.66;4371111;32;34794;-80
2022/06/24 03:24:59;;;;;;;5.30;1.80;;;;;;;19.04;50.08;99657.81;4363768;32;34752;-80
2022/06/24 03:27:46;;;;;;;4.07;1.90;;;;;;;18.92;50.96;99661.56;4371187;32;34896;-80
2022/06/24 03:30:33;;;;;;;3.17;1.70;;;;;;;19.03;50.48;99657.00;4370932;32;34711;-80
2022/06/24 03:33:20;;;;;;;2.87;1.77;;;;;;;19.05;50.66;99648.34;4371200;32;35773;-80
2022/06/24 03:36:10;;;;;;;4.25;1.85;;;;;;;18.94;50.42;99648.13;4371148;32;34564;-80
2022/06/24 03:38:57;;;;;;;4.65;1.80;;;;;;;19.00;50.34;99649.41;4357138;32;34121;-80
2022/06/24 03:41:43;;;;;;;4.85;1.90;;;;;;;19.05;50.56;99653.88;4372176;32;34317;-80
2022/06/24 03:44:30;;;;;;;4.43;2.03;;;;;;;19.12;50.26;99655.97;4373316;32;35210;-81
2022/06/24 03:47:17;;;;;;;4.40;2.10;;;;;;;19.16;49.78;99654.88;4373148;32;34692;-80
2022/06/24 03:50:03;;;;;;;3.95;1.65;;;;;;;19.38;49.72;99660.81;4360733;32;34119;-80
2022/06/24 03:52:49;;;;;;;3.62;1.87;;;;;;;19.51;49.37;99665.03;4373000;32;34687;-80
2022/06/24 03:55:36;;;;;;;3.42;1.77;;;;;;;19.49;49.53;99661.81;4372991;32;35975;-80
2022/06/24 03:58:22;;;;;;;5.12;2.00;;;;;;;19.02;50.99;99660.19;4358381;32;34290;-80
2022/06/24 04:01:09;;;;;;;2.62;1.60;;;;;;;19.41;49.66;99660.91;4373038;32;33765;-81
2022/06/24 04:03:55;;;;;;;6.75;1.75;;;;;;;19.56;49.17;99667.50;4358233;32;34566;-80
2022/06/24 04:06:41;;;;;;;5.60;2.10;;;;;;;19.67;49.79;99668.53;4370770;32;35028;-80
2022/06/24 04:09:28;;;;;;;3.12;1.65;;;;;;;19.85;49.94;99670.78;4372098;32;35574;-80
2022/06/24 04:12:14;;;;;;;4.28;1.67;;;;;;;19.93;49.20;99667.75;4373128;32;34062;-80
2022/06/24 04:15:17;;;;;;;4.07;1.80;;;;;;;19.94;50.15;99672.13;4350137;32;34627;-80
2022/06/24 04:18:04;;;;;;;3.70;1.98;;;;;;;20.00;50.55;99680.94;4371833;32;36057;-79
2022/06/24 04:20:51;;;;;;;4.53;1.90;;;;;;;19.99;49.38;99676.56;4360321;32;34917;-80
2022/06/24 04:23:37;;;;;;;4.22;2.20;;;;;;;20.12;49.79;99672.41;4357929;32;34906;-80
2022/06/24 04:26:24;;;;;;;6.37;2.00;;;;;;;20.08;50.74;99679.09;4364412;32;34600;-80
2022/06/24 04:29:10;;;;;;;6.00;2.15;;;;;;;20.27;50.19;99679.00;4356832;32;34802;-80
2022/06/24 04:31:56;;;;;;;3.75;1.90;;;;;;;20.17;49.42;99674.06;4372916;32;35214;-81
2022/06/24 04:34:43;;;;;;;5.50;1.70;;;;;;;20.43;48.46;99670.44;4372779;32;34086;-80
2022/06/24 04:37:29;;;;;;;6.37;1.83;;;;;;;20.19;49.72;99678.06;4359294;32;34319;-80
2022/06/24 04:40:16;;;;;;;4.90;2.12;;;;;;;20.38;48.53;99684.72;4360139;32;36016;-80
2022/06/24 04:43:02;;;;;;;4.82;1.80;;;;;;;20.21;48.78;99674.94;4372657;32;34487;-81
2022/06/24 04:45:49;;;;;;;3.25;1.70;;;;;;;20.55;48.37;99678.63;4372787;32;34154;-81
2022/06/24 04:48:36;;;;;;;8.68;1.75;;;;;;;20.67;48.49;99674.78;4356123;32;34220;-81
2022/06/24 04:51:22;;;;;;;5.43;2.00;;;;;;;20.88;47.31;99677.81;4359627;32;34382;-81
2022/06/24 04:54:09;;;;;;;3.50;1.55;;;;;;;20.89;47.00;99679.44;4364680;32;34296;-81
2022/06/24 04:56:55;;;;;;;4.20;1.98;;;;;;;20.97;48.31;99683.09;4372526;32;35107;-80
2022/06/24 04:59:42;;;;;;;6.12;2.00;;;;;;;21.18;48.50;99681.75;4362193;32;34199;-80
2022/06/24 05:02:28;;;;;;;7.05;1.87;;;;;;;20.93;48.76;99685.06;4368462;32;35664;-81
2022/06/24 05:05:16;;;;;;;5.62;2.10;;;;;;;21.19;45.28;99681.34;4371689;32;34661;-81
2022/06/24 05:08:02;;;;;;;4.78;2.60;;;;;;;21.16;46.15;99681.31;4360148;32;33877;-81
2022/06/24 05:10:48;;;;;;;4.07;1.80;;;;;;;21.14;44.87;99680.91;4360038;32;34667;-81
2022/06/24 05:13:35;;;;;;;4.45;1.95;;;;;;;21.56;44.17;99675.78;4372740;32;34741;-81
2022/06/24 05:16:21;;;;;;;5.07;1.90;;;;;;;21.70;43.69;99674.31;4360548;32;34362;-81
2022/06/24 05:19:24;;;;;;;4.60;1.73;;;;;;;21.83;43.65;99675.63;4372757;32;34415;-81
2022/06/24 05:22:10;;;;;;;7.05;1.95;;;;;;;21.76;42.57;99679.16;4372650;32;34228;-80
2022/06/24 05:24:56;;;;;;;6.00;1.80;;;;;;;21.89;42.56;99676.06;4369923;32;35749;-80
2022/06/24 05:27:43;;;;;;;4.43;1.98;;;;;;;21.85;42.12;99684.41;4359401;32;34758;-81
2022/06/24 05:30:29;;;;;;;9.32;1.92;;;;;;;22.24;41.85;99683.91;4371224;32;34167;-80
2022/06/24 05:33:15;;;;;;;4.03;1.95;;;;;;;21.99;42.39;99684.50;4372046;32;34736;-81
2022/06/24 05:36:02;;;;;;;4.70;2.15;;;;;;;22.15;42.32;99686.22;4372544;32;34983;-80
2022/06/24 05:38:48;;;;;;;4.30;1.77;;;;;;;22.39;42.88;99687.59;4360582;32;34121;-80
2022/06/24 05:41:37;;;;;;;4.25;2.00;;;;;;;22.49;41.35;99689.66;4368005;32;34188;-81
2022/06/24 05:44:24;;;;;;;6.45;1.90;;;;;;;22.37;41.67;99692.75;4359315;32;35920;-82
2022/06/24 05:47:10;;;;;;;5.22;2.00;;;;;;;22.40;41.30;99690.00;4368765;32;34486;-80
2022/06/24 05:49:57;;;;;;;4.87;1.90;;;;;;;22.55;40.98;99698.47;4369490;32;34300;-81
2022/06/24 05:55:48;;;;;;;4.05;1.60;;;;;;;22.64;40.78;99693.31;4371854;32;34944;-81
2022/06/24 05:58:35;;;;;;;3.90;2.00;;;;;;;22.69;40.75;99692.97;4349865;32;35511;-82
2022/06/24 06:01:21;;;;;;;6.15;1.70;;;;;;;23.04;40.21;99699.91;4372151;32;34725;-81
2022/06/24 06:04:07;;;;;;;6.55;1.80;;;;;;;22.98;40.07;99702.28;4372310;32;34100;-82
2022/06/24 06:06:54;;;;;;;5.00;1.85;;;;;;;23.32;39.80;99697.19;4372047;32;34700;-81
2022/06/24 06:09:41;;;;;;;4.07;2.00;;;;;;;23.08;41.23;99695.13;4363657;32;34894;-80
2022/06/24 06:12:27;;;;;;;3.45;2.00;;;;;;;23.24;40.58;99692.78;4361209;32;35310;-81
2022/06/24 06:15:14;;;;;;;4.78;1.80;;;;;;;23.43;39.36;99690.84;4371315;32;34963;-82
2022/06/24 06:18:03;;;;;;;4.18;1.85;;;;;;;23.78;40.02;99688.09;4359487;32;34343;-82
2022/06/24 06:20:50;;;;;;;5.15;1.90;;;;;;;23.57;39.66;99693.66;4357081;32;35778;-82
2022/06/24 06:23:39;;;;;;;5.20;1.70;;;;;;;23.62;38.56;99684.84;4370093;32;34217;-83
2022/06/24 06:26:25;;;;;;;4.82;2.00;;;;;;;23.58;38.66;99690.44;4359479;32;33833;-82
2022/06/24 06:29:12;;;;;;;5.30;2.17;;;;;;;23.76;39.21;99684.09;4356269;32;35039;-83
2022/06/24 06:31:58;;;;;;;6.93;2.37;;;;;;;23.90;38.20;99683.28;4368101;32;34704;-83
2022/06/24 06:34:45;;;;;;;4.65;2.22;;;;;;;23.93;38.76;99686.09;4365467;32;35501;-82
2022/06/24 06:37:31;;;;;;;4.20;2.08;;;;;;;23.87;38.17;99684.09;4362711;32;34167;-82
2022/06/24 06:40:17;;;;;;;8.95;2.30;;;;;;;23.92;38.15;99683.69;4359853;32;34195;-82
2022/06/24 06:43:07;;;;;;;6.80;2.25;;;;;;;24.07;38.61;99678.88;4359760;32;35991;-83
2022/06/24 06:45:54;;;;;;;4.12;2.15;;;;;;;24.03;38.80;99678.91;4356620;32;35545;-83
2022/06/24 06:48:41;;;;;;;7.20;1.85;;;;;;;24.60;37.96;99675.22;4358815;32;34553;-82
2022/06/24 06:51:27;;;;;;;5.65;2.12;;;;;;;24.63;38.46;99669.59;4359470;32;35354;-83
2022/06/24 06:54:13;;;;;;;5.32;2.20;;;;;;;24.35;38.15;99676.03;4367917;32;35761;-81
2022/06/24 06:57:00;;;;;;;4.90;2.35;;;;;;;24.66;36.90;99671.56;4369475;32;35570;-82
2022/06/24 06:59:48;;;;;;;5.90;2.20;;;;;;;24.58;37.08;99672.78;4349296;32;34031;-82
2022/06/24 07:02:34;;;;;;;9.73;2.42;;;;;;;24.88;37.22;99671.50;4368388;32;34663;-82
2022/06/24 07:05:21;;;;;;;5.55;2.35;;;;;;;24.83;38.74;99667.09;4370251;32;35040;-82
2022/06/24 07:08:07;;;;;;;7.00;2.30;;;;;;;25.04;36.83;99666.19;4370763;32;35816;-83
2022/06/24 07:10:54;;;;;;;3.67;1.87;;;;;;;25.14;36.19;99675.78;4365673;32;35275;-85
2022/06/24 07:13:40;;;;;;;3.08;1.80;;;;;;;25.21;36.82;99667.34;4372754;32;34185;-83
2022/06/24 07:16:26;;;;;;;5.03;2.45;;;;;;;25.01;37.03;99664.22;4373306;32;36006;-83
2022/06/24 07:19:12;;;;;;;3.50;2.10;;;;;;;25.33;37.02;99669.69;4362750;32;34614;-82
2022/06/24 07:21:59;;;;;;;4.47;2.03;;;;;;;25.52;35.11;99662.72;4358489;32;35100;-83
2022/06/24 07:24:45;;;;;;;6.35;1.95;;;;;;;25.67;34.77;99666.22;4368744;32;34400;-83
2022/06/24 07:27:32;;;;;;;4.03;2.25;;;;;;;25.86;34.33;99661.28;4368083;32;35532;-83
2022/06/24 07:30:18;;;;;;;4.32;2.30;;;;;;;25.86;34.36;99658.47;4371961;32;34171;-83
2022/06/24 07:33:04;;;;;;;2.97;2.20;;;;;;;25.80;34.31;99661.69;4365722;32;34257;-83
2022/06/24 07:35:51;;;;;;;5.68;2.28;;;;;;;26.16;33.62;99657.81;4364210;32;34654;-84
2022/06/24 07:38:38;;;;;;;4.07;2.00;;;;;;;26.41;33.42;99654.72;4373078;32;35938;-83
2022/06/24 07:41:24;;;;;;;4.10;2.45;;;;;;;26.21;33.02;99660.97;4359623;32;34760;-83
2022/06/24 07:44:11;;;;;;;5.15;2.28;;;;;;;26.44;31.90;99654.69;4366609;32;34208;-82
2022/06/24 07:46:57;;;;;;;3.85;2.33;;;;;;;26.50;33.16;99654.22;4368049;32;34319;-82
2022/06/24 07:49:44;;;;;;;4.47;1.95;;;;;;;26.59;32.23;99652.53;4360400;32;35939;-83
2022/06/24 07:52:30;;;;;;;4.72;2.10;;;;;;;26.76;31.83;99647.12;4360596;32;34837;-84
2022/06/24 07:58:22;;;;;;;5.45;2.30;;;;;;;26.93;32.04;99648.91;4369144;32;34533;-83
2022/06/24 08:01:09;;;;;;;5.03;2.12;;;;;;;27.10;31.59;99645.06;4370155;32;34504;-84
2022/06/24 08:03:56;;;;;;;5.35;2.25;;;;;;;27.12;30.70;99641.78;4365858;32;34610;-85
2022/06/24 08:06:46;;;;;;;3.30;1.90;;;;;;;27.51;31.47;99640.44;4367085;32;34448;-85
2022/06/24 08:09:32;;;;;;;8.00;2.20;;;;;;;27.39;31.60;99632.63;4365856;32;34476;-83
2022/06/24 08:12:18;;;;;;;5.05;2.42;;;;;;;27.53;31.30;99632.38;4370337;32;35799;-84
2022/06/24 08:15:05;;;;;;;3.30;2.25;;;;;;;27.86;30.37;99635.47;4359529;32;34645;-84
2022/06/24 08:17:51;;;;;;;4.85;2.20;;;;;;;27.74;29.96;99640.47;4369669;32;34211;-83
2022/06/24 08:20:38;;;;;;;6.87;2.37;;;;;;;27.86;30.76;99632.66;4365641;32;34893;-84
2022/06/24 08:23:24;;;;;;;3.55;2.03;;;;;;;28.27;30.45;99635.13;4365986;32;35050;-85
2022/06/24 08:26:10;;;;;;;4.32;2.45;;;;;;;28.37;29.50;99630.50;4365120;32;34638;-83
2022/06/24 08:28:57;;;;;;;5.03;2.40;;;;;;;28.48;29.70;99633.94;4362678;32;35084;-85
2022/06/24 08:31:43;;;;;;;4.72;2.28;;;;;;;28.38;29.72;99640.56;4360822;32;34636;-84
2022/06/24 08:34:30;;;;;;;5.28;2.20;;;;;;;28.32;28.63;99633.81;4359482;32;34394;-84
2022/06/24 08:37:17;;;;;;;2.85;1.90;;;;;;;28.64;28.55;99642.47;4369292;32;35062;-84
2022/06/24 08:40:04;;;;;;;4.10;2.22;;;;;;;28.85;28.30;99634.78;4364714;32;34029;-85
2022/06/24 08:42:53;;;;;;;4.47;2.20;;;;;;;28.60;28.91;99626.84;4367709;32;34341;-85
2022/06/24 08:45:39;;;;;;;9.70;2.92;;;;;;;28.67;28.84;99629.53;4349477;32;35909;-85
2022/06/24 08:48:26;;;;;;;5.03;2.42;;;;;;;28.85;29.66;99629.13;4358586;32;34299;-84
2022/06/24 08:51:13;;;;;;;5.95;2.22;;;;;;;28.86;29.02;99633.53;4362190;32;34248;-83
2022/06/24 08:54:01;;;;;;;8.70;2.60;;;;;;;28.99;28.50;99628.81;4364777;32;34136;-85
2022/06/24 08:57:08;;;;;;;4.03;2.15;;;;;;;29.26;28.94;99625.84;4370889;32;36147;-85
2022/06/24 08:59:54;;;;;;;5.50;2.30;;;;;;;29.25;28.88;99629.06;4363553;32;35701;-86
2022/06/24 09:02:41;;;;;;;8.10;2.25;;;;;;;29.58;28.15;99627.09;4360745;32;34375;-85
2022/06/24 09:05:28;;;;;;;2.85;2.00;;;;;;;29.97;29.36;99628.94;4358773;32;34652;-84
2022/06/24 09:08:16;;;;;;;4.82;2.37;;;;;;;29.84;29.24;99625.22;4370494;32;35867;-83
2022/06/24 09:11:07;;;;;;;2.97;2.28;;;;;;;29.77;27.66;99619.75;4358607;32;35139;-84
2022/06/24 09:13:55;;;;;;;4.50;2.47;;;;;;;29.65;27.09;99615.62;4359014;32;34246;-85
2022/06/24 09:16:41;;;;;;;4.25;2.30;;;;;;;30.18;27.27;99615.47;4363407;32;34853;-83
2022/06/24 09:19:33;;;;;;;4.72;2.33;;;;;;;30.17;26.84;99613.84;4359851;32;36000;-85
2022/06/24 09:22:23;;;;;;;6.78;2.55;;;;;;;30.02;28.23;99628.37;4359076;32;35448;-84
2022/06/24 09:25:09;;;;;;;4.22;1.90;;;;;;;30.48;27.76;99617.88;4366218;32;34191;-85
2022/06/24 09:27:58;;;;;;;3.08;2.10;;;;;;;30.80;25.60;99616.16;4356842;32;35179;-84
2022/06/24 09:30:44;;;;;;;6.30;1.90;;;;;;;30.34;25.30;99606.97;4362130;32;35022;-85
2022/06/24 09:33:47;;;;;;;5.72;2.45;;;;;;;30.61;25.88;99614.28;4363807;32;34713;-85
2022/06/24 09:36:34;;;;;;;4.37;2.00;;;;;;;30.86;27.11;99614.34;4370605;32;35088;-84
2022/06/24 09:39:22;;;;;;;5.95;2.05;;;;;;;30.68;25.59;99606.38;4366984;32;34678;-85
2022/06/24 09:42:19;;;;;;;6.60;2.35;;;;;;;30.70;25.69;99609.53;4367679;32;34548;-84
2022/06/24 09:45:06;;;;;;;5.82;2.53;;;;;;;30.95;26.01;99615.72;4360391;32;34350;-84
2022/06/24 09:47:53;;;;;;;6.12;2.47;;;;;;;30.47;24.43;99613.44;4365699;32;34225;-86
2022/06/24 09:50:40;;;;;;;3.65;1.73;;;;;;;31.29;24.95;99613.00;4360176;32;34723;-86
2022/06/24 09:53:28;;;;;;;4.35;2.10;;;;;;;31.46;24.78;99610.09;4360436;32;35145;-84
2022/06/24 09:56:14;;;;;;;3.35;2.33;;;;;;;31.18;25.02;99606.91;4366640;32;34915;-86
2022/06/24 10:02:11;;;;;;;4.87;2.00;;;;;;;31.38;24.31;99606.69;4365231;32;34374;-85
2022/06/24 10:05:07;;;;;;;6.35;2.40;;;;;;;31.17;24.09;99610.19;4357402;32;34977;-85
2022/06/24 10:07:55;;;;;;;6.28;1.98;;;;;;;29.57;25.52;99609.34;4356847;32;34212;-85
2022/06/24 10:10:48;;;;;;;4.95;2.08;;;;;;;31.28;26.01;99591.63;4363338;32;34150;-85
2022/06/24 10:13:35;;;;;;;4.00;1.98;;;;;;;30.98;26.44;99592.97;4366102;32;34628;-86
2022/06/24 10:16:21;;;;;;;4.18;2.10;;;;;;;31.62;25.44;99590.13;4364139;32;34037;-86
2022/06/24 10:19:12;;;;;;;5.95;2.17;;;;;;;31.87;23.93;99585.62;4364898;32;34158;-85
2022/06/24 10:22:07;;;;;;;4.97;2.17;;;;;;;31.72;26.47;99588.97;4362890;32;33854;-86
2022/06/24 10:24:53;;;;;;;4.03;2.28;;;;;;;31.83;24.53;99588.59;4370636;32;35594;-86
2022/06/24 10:27:58;;;;;;;4.62;2.00;;;;;;;31.21;24.16;99572.03;4368506;32;36029;-85
2022/06/24 10:30:47;;;;;;;6.62;2.10;;;;;;;31.80;24.52;99570.47;4359337;32;34610;-85
2022/06/24 10:33:36;;;;;;;3.03;2.10;;;;;;;31.94;23.22;99571.25;4363029;32;33840;-86
2022/06/24 10:36:31;;;;;;;5.20;2.20;;;;;;;32.27;22.60;99565.97;4361780;32;34842;-86
2022/06/24 10:39:22;;;;;;;3.95;2.03;;;;;;;32.36;23.71;99559.56;4361132;32;34993;-86
2022/06/24 10:42:14;;;;;;;5.80;2.12;;;;;;;32.21;23.28;99548.00;4370708;32;35095;-85
2022/06/24 10:45:02;;;;;;;5.75;2.10;;;;;;;32.75;22.26;99554.50;4366358;32;34201;-87
2022/06/24 10:47:48;;;;;;;4.32;2.17;;;;;;;32.35;24.01;99553.13;4363307;32;35582;-86
2022/06/24 10:50:35;;;;;;;3.78;2.25;;;;;;;32.63;24.36;99559.00;4361609;32;35094;-87
2022/06/24 10:53:21;;;;;;;4.87;2.20;;;;;;;32.58;22.74;99543.37;4359301;32;34771;-85
2022/06/24 10:56:08;;;;;;;3.90;1.90;;;;;;;32.88;24.27;99546.69;4366648;32;35333;-85
2022/06/24 10:58:54;;;;;;;2.40;2.10;;;;;;;32.63;25.22;99545.59;4368092;32;35552;-85
2022/06/24 11:01:46;;;;;;;4.20;2.05;;;;;;;33.03;22.97;99542.03;4357542;32;35017;-87
2022/06/24 11:04:32;;;;;;;3.42;2.17;;;;;;;32.99;24.49;99538.56;4360145;32;34145;-88
2022/06/24 11:07:22;;;;;;;3.03;1.95;;;;;;;32.69;22.71;99543.75;4366900;32;33911;-86
2022/06/24 11:10:19;;;;;;;4.57;2.12;;;;;;;32.66;23.31;99546.72;4363926;32;34703;-87
2022/06/24 11:13:05;;;;;;;3.72;2.15;;;;;;;32.69;22.08;99543.75;4362134;32;35517;-89
2022/06/24 11:15:54;;;;;;;8.60;2.25;;;;;;;32.40;22.37;99534.75;4363105;32;35507;-89
2022/06/24 11:18:41;;;;;;;3.12;2.05;;;;;;;32.75;21.37;99520.44;4362834;32;35150;-87
2022/06/24 11:21:45;;;;;;;4.57;2.10;;;;;;;32.79;22.47;99521.91;4364375;32;34365;-86
2022/06/24 11:24:33;;;;;;;3.47;2.07;;;;;;;32.79;23.25;99516.22;4359225;32;34968;-89
2022/06/24 11:27:19;;;;;;;5.03;2.22;;;;;;;33.40;22.33;99507.25;4357943;32;33276;-90
2022/06/24 11:30:06;;;;;;;3.65;2.03;;;;;;;33.67;20.93;99512.19;4365069;32;33796;-87
2022/06/24 11:33:03;;;;;;;4.65;2.12;;;;;;;33.05;21.08;99496.94;4364943;32;35543;-87
2022/06/24 11:35:50;;;;;;;4.40;1.90;;;;;;;32.90;22.14;99504.41;4365228;32;35083;-88
2022/06/24 11:39:09;;;;;;;4.55;2.10;;;;;;;33.55;21.53;99500.50;4370648;32;33077;-86
2022/06/24 11:41:55;;;;;;;3.35;2.10;;;;;;;32.72;21.46;99499.47;4365948;32;34878;-86
2022/06/24 11:44:41;;;;;;;6.57;2.53;;;;;;;33.80;21.09;99501.47;4358408;32;35573;-87
2022/06/24 11:47:33;;;;;;;3.72;2.10;;;;;;;34.12;20.79;99482.19;4355504;32;33799;-86
2022/06/24 11:50:20;;;;;;;4.70;2.08;;;;;;;33.56;20.49;99492.81;4363781;32;34459;-85
2022/06/24 11:53:07;;;;;;;3.83;2.05;;;;;;;34.00;20.39;99492.47;4359152;32;34266;-87
2022/06/24 11:56:01;;;;;;;6.55;1.98;;;;;;;33.79;20.96;99492.16;4361708;32;34696;-85
2022/06/24 11:58:48;;;;;;;5.95;2.15;;;;;;;34.09;21.07;99486.00;4360699;32;35040;-88
2022/06/24 12:01:35;;;;;;;4.87;1.95;;;;;;;33.98;21.54;99481.59;4362476;32;34635;-89
2022/06/24 12:04:23;;;;;;;6.93;2.25;;;;;;;33.26;22.68;99480.25;4361698;32;33732;-87
2022/06/24 12:07:15;;;;;;;6.18;2.15;;;;;;;33.64;22.55;99467.69;4363859;32;35545;-88
2022/06/24 12:10:02;;;;;;;5.18;1.80;;;;;;;33.75;22.53;99470.84;4371556;32;34886;-87
2022/06/24 12:12:57;;;;;;;5.03;2.15;;;;;;;34.00;20.13;99459.13;4367660;32;34766;-88
2022/06/24 12:15:43;;;;;;;5.28;2.00;;;;;;;34.07;21.31;99460.09;4370181;32;34238;-86
2022/06/24 12:18:30;;;;;;;3.75;1.90;;;;;;;34.10;20.55;99462.78;4368499;32;35526;-86
2022/06/24 12:21:24;;;;;;;8.70;2.33;;;;;;;34.58;19.46;99450.81;4366538;32;34923;-87
2022/06/24 12:24:24;;;;;;;5.87;2.10;;;;;;;34.31;19.09;99455.31;4371246;32;34747;-86
2022/06/24 12:27:12;;;;;;;8.80;1.80;;;;;;;34.44;20.37;99457.97;4366180;32;34140;-86
2022/06/24 12:29:58;;;;;;;2.47;1.70;;;;;;;34.45;20.32;99454.63;4371737;32;35631;-86
2022/06/24 12:32:52;;;;;;;3.12;1.87;;;;;;;34.73;19.58;99463.06;4370162;32;34941;-87
2022/06/24 12:35:38;;;;;;;4.65;1.87;;;;;;;34.30;19.98;99459.44;4365126;32;35499;-85
2022/06/24 12:38:55;;;;;;;5.47;2.15;;;;;;;34.37;20.70;99458.28;4369243;32;34666;-85
2022/06/24 12:41:46;;;;;;;4.72;1.80;;;;;;;34.14;19.86;99446.34;4364734;32;35572;-89
2022/06/24 12:44:54;;;;;;;2.62;1.77;;;;;;;34.87;19.94;99456.69;4371218;32;34820;-86
2022/06/24 12:50:58;;;;;;;9.15;1.98;;;;;;;34.75;18.96;99440.59;4363263;32;33847;-86
2022/06/24 12:53:46;;;;;;;8.95;2.50;;;;;;;35.06;18.50;99428.13;4362157;32;34782;-85
2022/06/24 12:56:34;;;;;;;5.40;1.90;;;;;;;34.87;20.33;99424.59;4367525;32;36034;-86
2022/06/24 12:59:21;;;;;;;4.22;1.98;;;;;;;35.36;18.07;99423.31;4365094;32;34672;-88
2022/06/24 13:02:09;;;;;;;6.18;1.90;;;;;;;35.64;18.96;99420.28;4371583;32;34130;-85
2022/06/24 13:04:55;;;;;;;4.43;2.17;;;;;;;34.67;19.34;99414.56;4372231;32;34639;-86
2022/06/24 13:07:49;;;;;;;3.60;1.90;;;;;;;34.96;19.51;99407.44;4361813;32;35578;-89
2022/06/24 13:10:35;;;;;;;4.85;1.83;;;;;;;35.46;18.50;99386.97;4365607;32;34604;-87
2022/06/24 13:13:24;;;;;;;3.12;1.87;;;;;;;35.10;19.72;99389.66;4373514;32;35053;-87
2022/06/24 13:16:10;;;;;;;3.80;2.00;;;;;;;35.35;18.29;99370.50;4362029;32;34667;-86
2022/06/24 13:18:57;;;;;;;3.00;1.85;;;;;;;35.84;17.37;99362.59;4364461;32;33304;-93
2022/06/24 13:21:43;;;;;;;3.58;1.80;;;;;;;34.66;19.34;99361.00;4362400;32;34598;-89
2022/06/24 13:24:30;;;;;;;3.30;1.80;;;;;;;35.19;18.63;99368.09;4360465;32;34156;-86
2022/06/24 13:27:17;;;;;;;3.50;1.80;;;;;;;35.61;19.09;99369.94;4369921;32;34610;-85
2022/06/24 13:30:04;;;;;;;4.70;1.83;;;;;;;34.98;18.38;99364.25;4364360;32;35990;-86
2022/06/24 13:32:51;;;;;;;6.05;2.10;;;;;;;35.70;18.93;99362.09;4360774;32;34662;-86